sensor_id;sensor_type;location;lat;lon;timestamp;P1;durP1;ratioP1;P2;durP2;ratioP2
23802;SDS011;12082;51.786;6.018;2022-07-09T00:00:32;8.23;;;4.57;;
23802;SDS011;12082;51.786;6.018;2022-07-09T00:02:58;7.57;;;4.50;;
23802;SDS011;12082;51.786;6.018;2022-07-09T00:05:24;4.43;;;3.63;;
23802;SDS011;12082;51.786;6.018;2022-07-09T00:07:50;6.33;;;4.73;;
23802;SDS011;12082;51.786;6.018;2022-07-09T00:10:16;7.63;;;5.13;;
23802;SDS011;12082;51.786;6.018;2022-07-09T00:12:42;7.83;;;4.87;;
23802;SDS011;12082;51.786;6.018;2022-07-09T00:15:08;6.07;;;4.97;;
23802;SDS011;12082;51.786;6.018;2022-07-09T00:17:34;6.73;;;5.03;;
23802;SDS011;12082;51.786;6.018;2022-07-09T00:20:00;9.53;;;4.87;;
23802;SDS011;12082;51.786;6.018;2022-07-09T00:22:29;9.17;;;6.37;;
23802;SDS011;12082;51.786;6.018;2022-07-09T00:24:56;7.27;;;5.57;;
23802;SDS011;12082;51.786;6.018;2022-07-09T00:27:22;6.60;;;5.37;;
23802;SDS011;12082;51.786;6.018;2022-07-09T00:29:48;8.10;;;4.90;;
23802;SDS011;12082;51.786;6.018;2022-07-09T00:32:14;6.30;;;5.67;;
23802;SDS011;12082;51.786;6.018;2022-07-09T00:34:40;9.50;;;6.80;;
23802;SDS011;12082;51.786;6.018;2022-07-09T00:37:06;7.83;;;5.63;;
23802;SDS011;12082;51.786;6.018;2022-07-09T00:39:32;7.43;;;5.57;;
23802;SDS011;12082;51.786;6.018;2022-07-09T00:42:05;7.93;;;5.70;;
23802;SDS011;12082;51.786;6.018;2022-07-09T00:44:31;7.23;;;5.23;;
23802;SDS011;12082;51.786;6.018;2022-07-09T00:46:57;7.03;;;5.57;;
23802;SDS011;12082;51.786;6.018;2022-07-09T00:49:24;8.00;;;5.57;;
23802;SDS011;12082;51.786;6.018;2022-07-09T00:51:50;8.23;;;5.70;;
23802;SDS011;12082;51.786;6.018;2022-07-09T00:54:16;7.13;;;5.73;;
23802;SDS011;12082;51.786;6.018;2022-07-09T00:56:42;5.83;;;5.23;;
23802;SDS011;12082;51.786;6.018;2022-07-09T00:59:08;5.30;;;4.80;;
23802;SDS011;12082;51.786;6.018;2022-07-09T01:01:38;5.97;;;4.97;;
23802;SDS011;12082;51.786;6.018;2022-07-09T01:04:05;8.80;;;5.20;;
23802;SDS011;12082;51.786;6.018;2022-07-09T01:06:31;6.57;;;5.17;;
23802;SDS011;12082;51.786;6.018;2022-07-09T01:08:59;5.87;;;5.27;;
23802;SDS011;12082;51.786;6.018;2022-07-09T01:11:25;7.30;;;5.93;;
23802;SDS011;12082;51.786;6.018;2022-07-09T01:13:51;5.57;;;4.63;;
23802;SDS011;12082;51.786;6.018;2022-07-09T01:16:18;9.80;;;5.63;;
23802;SDS011;12082;51.786;6.018;2022-07-09T01:18:48;8.37;;;6.43;;
23802;SDS011;12082;51.786;6.018;2022-07-09T01:21:14;9.03;;;5.60;;
23802;SDS011;12082;51.786;6.018;2022-07-09T01:23:40;6.80;;;6.10;;
23802;SDS011;12082;51.786;6.018;2022-07-09T01:26:06;6.47;;;5.77;;
23802;SDS011;12082;51.786;6.018;2022-07-09T01:28:32;10.30;;;6.37;;
23802;SDS011;12082;51.786;6.018;2022-07-09T01:30:58;9.60;;;6.53;;
23802;SDS011;12082;51.786;6.018;2022-07-09T01:33:25;9.30;;;6.17;;
23802;SDS011;12082;51.786;6.018;2022-07-09T01:35:51;9.40;;;6.90;;
23802;SDS011;12082;51.786;6.018;2022-07-09T01:38:17;8.47;;;6.23;;
23802;SDS011;12082;51.786;6.018;2022-07-09T01:40:42;7.73;;;6.70;;
23802;SDS011;12082;51.786;6.018;2022-07-09T01:43:08;7.93;;;6.70;;
23802;SDS011;12082;51.786;6.018;2022-07-09T01:45:34;7.13;;;6.43;;
23802;SDS011;12082;51.786;6.018;2022-07-09T01:48:00;9.37;;;6.47;;
23802;SDS011;12082;51.786;6.018;2022-07-09T01:50:26;7.93;;;6.83;;
23802;SDS011;12082;51.786;6.018;2022-07-09T01:52:52;10.43;;;7.20;;
23802;SDS011;12082;51.786;6.018;2022-07-09T01:55:18;12.30;;;7.20;;
23802;SDS011;12082;51.786;6.018;2022-07-09T01:57:44;7.97;;;6.77;;
23802;SDS011;12082;51.786;6.018;2022-07-09T02:00:10;7.13;;;6.43;;
23802;SDS011;12082;51.786;6.018;2022-07-09T02:02:37;12.50;;;7.47;;
23802;SDS011;12082;51.786;6.018;2022-07-09T02:05:03;11.20;;;7.20;;
23802;SDS011;12082;51.786;6.018;2022-07-09T02:07:29;11.10;;;7.83;;
23802;SDS011;12082;51.786;6.018;2022-07-09T02:09:55;10.07;;;7.50;;
23802;SDS011;12082;51.786;6.018;2022-07-09T02:12:21;13.20;;;7.70;;
23802;SDS011;12082;51.786;6.018;2022-07-09T02:14:47;8.27;;;6.70;;
23802;SDS011;12082;51.786;6.018;2022-07-09T02:17:14;10.30;;;7.07;;
23802;SDS011;12082;51.786;6.018;2022-07-09T02:19:40;8.67;;;6.77;;
23802;SDS011;12082;51.786;6.018;2022-07-09T02:22:06;10.77;;;7.37;;
23802;SDS011;12082;51.786;6.018;2022-07-09T02:24:32;10.07;;;7.77;;
23802;SDS011;12082;51.786;6.018;2022-07-09T02:26:58;11.87;;;7.57;;
23802;SDS011;12082;51.786;6.018;2022-07-09T02:29:24;11.43;;;7.57;;
23802;SDS011;12082;51.786;6.018;2022-07-09T02:31:50;10.83;;;7.90;;
23802;SDS011;12082;51.786;6.018;2022-07-09T02:34:16;15.80;;;8.50;;
23802;SDS011;12082;51.786;6.018;2022-07-09T02:36:42;11.17;;;8.20;;
23802;SDS011;12082;51.786;6.018;2022-07-09T02:39:08;11.67;;;7.17;;
23802;SDS011;12082;51.786;6.018;2022-07-09T02:41:34;11.60;;;8.27;;
23802;SDS011;12082;51.786;6.018;2022-07-09T02:44:00;13.43;;;7.90;;
23802;SDS011;12082;51.786;6.018;2022-07-09T02:46:26;13.80;;;8.63;;
23802;SDS011;12082;51.786;6.018;2022-07-09T02:48:52;12.43;;;7.73;;
23802;SDS011;12082;51.786;6.018;2022-07-09T02:51:18;11.60;;;8.50;;
23802;SDS011;12082;51.786;6.018;2022-07-09T02:53:43;12.57;;;8.17;;
23802;SDS011;12082;51.786;6.018;2022-07-09T02:56:09;11.33;;;8.27;;
23802;SDS011;12082;51.786;6.018;2022-07-09T02:58:36;15.93;;;8.43;;
23802;SDS011;12082;51.786;6.018;2022-07-09T03:01:02;13.40;;;9.07;;
23802;SDS011;12082;51.786;6.018;2022-07-09T03:03:30;16.70;;;9.97;;
23802;SDS011;12082;51.786;6.018;2022-07-09T03:05:56;15.43;;;10.73;;
23802;SDS011;12082;51.786;6.018;2022-07-09T03:08:22;20.50;;;11.87;;
23802;SDS011;12082;51.786;6.018;2022-07-09T03:10:48;22.00;;;11.53;;
23802;SDS011;12082;51.786;6.018;2022-07-09T03:13:14;18.20;;;10.43;;
23802;SDS011;12082;51.786;6.018;2022-07-09T03:15:41;16.03;;;11.37;;
23802;SDS011;12082;51.786;6.018;2022-07-09T03:18:07;18.90;;;11.03;;
23802;SDS011;12082;51.786;6.018;2022-07-09T03:20:33;16.27;;;11.53;;
23802;SDS011;12082;51.786;6.018;2022-07-09T03:23:00;18.63;;;12.13;;
23802;SDS011;12082;51.786;6.018;2022-07-09T03:25:26;16.73;;;11.17;;
23802;SDS011;12082;51.786;6.018;2022-07-09T03:27:52;16.50;;;10.80;;
23802;SDS011;12082;51.786;6.018;2022-07-09T03:30:19;16.60;;;10.60;;
23802;SDS011;12082;51.786;6.018;2022-07-09T03:32:45;17.03;;;11.47;;
23802;SDS011;12082;51.786;6.018;2022-07-09T03:35:11;17.93;;;12.93;;
23802;SDS011;12082;51.786;6.018;2022-07-09T03:37:37;24.73;;;14.77;;
23802;SDS011;12082;51.786;6.018;2022-07-09T03:40:03;21.97;;;13.33;;
23802;SDS011;12082;51.786;6.018;2022-07-09T03:42:29;14.57;;;10.70;;
23802;SDS011;12082;51.786;6.018;2022-07-09T03:44:55;10.93;;;8.80;;
23802;SDS011;12082;51.786;6.018;2022-07-09T03:47:21;13.60;;;9.30;;
23802;SDS011;12082;51.786;6.018;2022-07-09T03:49:48;15.03;;;10.80;;
23802;SDS011;12082;51.786;6.018;2022-07-09T03:52:14;22.77;;;14.53;;
23802;SDS011;12082;51.786;6.018;2022-07-09T03:54:40;22.20;;;14.03;;
23802;SDS011;12082;51.786;6.018;2022-07-09T03:57:06;26.63;;;13.97;;
23802;SDS011;12082;51.786;6.018;2022-07-09T03:59:32;24.47;;;15.63;;
23802;SDS011;12082;51.786;6.018;2022-07-09T04:01:58;21.20;;;14.30;;
23802;SDS011;12082;51.786;6.018;2022-07-09T04:04:24;21.87;;;14.40;;
23802;SDS011;12082;51.786;6.018;2022-07-09T04:06:50;27.37;;;15.73;;
23802;SDS011;12082;51.786;6.018;2022-07-09T04:09:16;23.80;;;15.77;;
23802;SDS011;12082;51.786;6.018;2022-07-09T04:11:42;29.50;;;17.00;;
23802;SDS011;12082;51.786;6.018;2022-07-09T04:14:08;29.93;;;16.57;;
23802;SDS011;12082;51.786;6.018;2022-07-09T04:16:33;24.00;;;15.57;;
23802;SDS011;12082;51.786;6.018;2022-07-09T04:18:59;22.70;;;15.43;;
23802;SDS011;12082;51.786;6.018;2022-07-09T04:21:25;17.90;;;12.37;;
23802;SDS011;12082;51.786;6.018;2022-07-09T04:23:51;15.30;;;10.40;;
23802;SDS011;12082;51.786;6.018;2022-07-09T04:26:18;21.07;;;10.30;;
23802;SDS011;12082;51.786;6.018;2022-07-09T04:28:44;18.23;;;11.10;;
23802;SDS011;12082;51.786;6.018;2022-07-09T04:31:10;16.97;;;11.77;;
23802;SDS011;12082;51.786;6.018;2022-07-09T04:33:36;13.97;;;10.37;;
23802;SDS011;12082;51.786;6.018;2022-07-09T04:36:02;14.60;;;10.73;;
23802;SDS011;12082;51.786;6.018;2022-07-09T04:38:28;16.90;;;10.93;;
23802;SDS011;12082;51.786;6.018;2022-07-09T04:40:55;20.83;;;11.87;;
23802;SDS011;12082;51.786;6.018;2022-07-09T04:43:22;19.87;;;12.20;;
23802;SDS011;12082;51.786;6.018;2022-07-09T04:45:48;19.60;;;12.97;;
23802;SDS011;12082;51.786;6.018;2022-07-09T04:48:14;16.10;;;10.90;;
23802;SDS011;12082;51.786;6.018;2022-07-09T04:50:40;19.50;;;14.00;;
23802;SDS011;12082;51.786;6.018;2022-07-09T04:53:06;19.90;;;12.97;;
23802;SDS011;12082;51.786;6.018;2022-07-09T04:55:32;23.87;;;14.23;;
23802;SDS011;12082;51.786;6.018;2022-07-09T04:57:58;21.83;;;14.13;;
23802;SDS011;12082;51.786;6.018;2022-07-09T05:00:24;21.23;;;14.07;;
23802;SDS011;12082;51.786;6.018;2022-07-09T05:02:50;21.43;;;14.60;;
23802;SDS011;12082;51.786;6.018;2022-07-09T05:05:16;22.67;;;13.87;;
23802;SDS011;12082;51.786;6.018;2022-07-09T05:07:42;22.90;;;14.77;;
23802;SDS011;12082;51.786;6.018;2022-07-09T05:10:08;19.00;;;13.17;;
23802;SDS011;12082;51.786;6.018;2022-07-09T05:12:34;21.80;;;14.80;;
23802;SDS011;12082;51.786;6.018;2022-07-09T05:15:01;21.57;;;12.93;;
23802;SDS011;12082;51.786;6.018;2022-07-09T05:17:27;25.57;;;16.60;;
23802;SDS011;12082;51.786;6.018;2022-07-09T05:19:53;30.47;;;17.77;;
23802;SDS011;12082;51.786;6.018;2022-07-09T05:22:19;26.40;;;15.63;;
23802;SDS011;12082;51.786;6.018;2022-07-09T05:24:47;34.20;;;18.80;;
23802;SDS011;12082;51.786;6.018;2022-07-09T05:27:14;30.40;;;17.33;;
23802;SDS011;12082;51.786;6.018;2022-07-09T05:29:40;27.63;;;15.93;;
23802;SDS011;12082;51.786;6.018;2022-07-09T05:32:06;30.90;;;16.67;;
23802;SDS011;12082;51.786;6.018;2022-07-09T05:34:32;27.73;;;15.40;;
23802;SDS011;12082;51.786;6.018;2022-07-09T05:36:58;24.60;;;15.77;;
23802;SDS011;12082;51.786;6.018;2022-07-09T05:39:24;20.93;;;14.33;;
23802;SDS011;12082;51.786;6.018;2022-07-09T05:41:50;22.17;;;14.13;;
23802;SDS011;12082;51.786;6.018;2022-07-09T05:44:16;24.27;;;13.87;;
23802;SDS011;12082;51.786;6.018;2022-07-09T05:46:42;19.23;;;14.10;;
23802;SDS011;12082;51.786;6.018;2022-07-09T05:49:08;20.93;;;13.87;;
23802;SDS011;12082;51.786;6.018;2022-07-09T05:51:34;16.70;;;12.53;;
23802;SDS011;12082;51.786;6.018;2022-07-09T05:54:01;19.07;;;12.73;;
23802;SDS011;12082;51.786;6.018;2022-07-09T05:56:28;17.50;;;11.47;;
23802;SDS011;12082;51.786;6.018;2022-07-09T05:58:54;17.23;;;10.77;;
23802;SDS011;12082;51.786;6.018;2022-07-09T06:01:20;14.00;;;10.03;;
23802;SDS011;12082;51.786;6.018;2022-07-09T06:03:46;14.33;;;10.37;;
23802;SDS011;12082;51.786;6.018;2022-07-09T06:06:12;12.37;;;9.07;;
23802;SDS011;12082;51.786;6.018;2022-07-09T06:08:38;15.10;;;8.93;;
23802;SDS011;12082;51.786;6.018;2022-07-09T06:11:04;14.40;;;9.23;;
23802;SDS011;12082;51.786;6.018;2022-07-09T06:13:31;15.53;;;9.87;;
23802;SDS011;12082;51.786;6.018;2022-07-09T06:15:57;14.97;;;9.37;;
23802;SDS011;12082;51.786;6.018;2022-07-09T06:18:23;13.67;;;10.17;;
23802;SDS011;12082;51.786;6.018;2022-07-09T06:20:49;11.77;;;8.93;;
23802;SDS011;12082;51.786;6.018;2022-07-09T06:23:15;12.90;;;9.07;;
23802;SDS011;12082;51.786;6.018;2022-07-09T06:25:41;15.47;;;9.70;;
23802;SDS011;12082;51.786;6.018;2022-07-09T06:28:07;16.57;;;10.67;;
23802;SDS011;12082;51.786;6.018;2022-07-09T06:30:33;16.23;;;10.27;;
23802;SDS011;12082;51.786;6.018;2022-07-09T06:32:59;13.67;;;10.43;;
23802;SDS011;12082;51.786;6.018;2022-07-09T06:35:25;13.50;;;10.60;;
23802;SDS011;12082;51.786;6.018;2022-07-09T06:37:51;21.90;;;12.00;;
23802;SDS011;12082;51.786;6.018;2022-07-09T06:40:17;16.03;;;10.63;;
23802;SDS011;12082;51.786;6.018;2022-07-09T06:42:43;13.33;;;8.80;;
23802;SDS011;12082;51.786;6.018;2022-07-09T06:45:09;11.53;;;8.77;;
23802;SDS011;12082;51.786;6.018;2022-07-09T06:47:35;13.43;;;9.13;;
23802;SDS011;12082;51.786;6.018;2022-07-09T06:50:01;12.50;;;8.73;;
23802;SDS011;12082;51.786;6.018;2022-07-09T06:52:27;11.13;;;8.27;;
23802;SDS011;12082;51.786;6.018;2022-07-09T06:54:53;11.17;;;9.33;;
23802;SDS011;12082;51.786;6.018;2022-07-09T06:57:22;13.10;;;8.50;;
23802;SDS011;12082;51.786;6.018;2022-07-09T06:59:48;10.00;;;7.23;;
23802;SDS011;12082;51.786;6.018;2022-07-09T07:02:14;10.03;;;6.67;;
23802;SDS011;12082;51.786;6.018;2022-07-09T07:04:43;10.60;;;8.07;;
23802;SDS011;12082;51.786;6.018;2022-07-09T07:07:09;10.07;;;7.73;;
23802;SDS011;12082;51.786;6.018;2022-07-09T07:09:35;11.60;;;8.53;;
23802;SDS011;12082;51.786;6.018;2022-07-09T07:12:02;11.93;;;8.00;;
23802;SDS011;12082;51.786;6.018;2022-07-09T07:14:28;16.67;;;8.67;;
23802;SDS011;12082;51.786;6.018;2022-07-09T07:16:54;10.13;;;7.27;;
23802;SDS011;12082;51.786;6.018;2022-07-09T07:19:20;8.63;;;6.93;;
23802;SDS011;12082;51.786;6.018;2022-07-09T07:21:47;9.87;;;7.33;;
23802;SDS011;12082;51.786;6.018;2022-07-09T07:24:13;10.20;;;7.03;;
23802;SDS011;12082;51.786;6.018;2022-07-09T07:26:39;11.10;;;8.27;;
23802;SDS011;12082;51.786;6.018;2022-07-09T07:29:05;10.37;;;7.67;;
23802;SDS011;12082;51.786;6.018;2022-07-09T07:31:31;12.20;;;8.23;;
23802;SDS011;12082;51.786;6.018;2022-07-09T07:33:57;10.20;;;7.37;;
23802;SDS011;12082;51.786;6.018;2022-07-09T07:36:24;10.90;;;7.20;;
23802;SDS011;12082;51.786;6.018;2022-07-09T07:38:50;10.17;;;6.37;;
23802;SDS011;12082;51.786;6.018;2022-07-09T07:41:16;9.57;;;5.80;;
23802;SDS011;12082;51.786;6.018;2022-07-09T07:43:43;9.37;;;5.43;;
23802;SDS011;12082;51.786;6.018;2022-07-09T07:46:09;5.83;;;4.27;;
23802;SDS011;12082;51.786;6.018;2022-07-09T07:48:35;4.40;;;3.47;;
23802;SDS011;12082;51.786;6.018;2022-07-09T07:51:01;4.50;;;3.17;;
23802;SDS011;12082;51.786;6.018;2022-07-09T07:53:29;2.93;;;2.63;;
23802;SDS011;12082;51.786;6.018;2022-07-09T07:55:55;3.87;;;2.33;;
23802;SDS011;12082;51.786;6.018;2022-07-09T07:58:21;3.67;;;2.40;;
23802;SDS011;12082;51.786;6.018;2022-07-09T08:00:47;4.50;;;3.40;;
23802;SDS011;12082;51.786;6.018;2022-07-09T08:03:13;5.90;;;3.53;;
23802;SDS011;12082;51.786;6.018;2022-07-09T08:05:39;7.80;;;3.93;;
23802;SDS011;12082;51.786;6.018;2022-07-09T08:08:06;8.93;;;2.33;;
23802;SDS011;12082;51.786;6.018;2022-07-09T08:10:32;3.53;;;3.17;;
23802;SDS011;12082;51.786;6.018;2022-07-09T08:12:58;5.37;;;3.23;;
23802;SDS011;12082;51.786;6.018;2022-07-09T08:15:24;8.30;;;3.60;;
23802;SDS011;12082;51.786;6.018;2022-07-09T08:17:50;7.90;;;3.47;;
23802;SDS011;12082;51.786;6.018;2022-07-09T08:20:16;5.43;;;3.67;;
23802;SDS011;12082;51.786;6.018;2022-07-09T08:22:42;4.10;;;3.33;;
23802;SDS011;12082;51.786;6.018;2022-07-09T08:25:08;5.63;;;3.20;;
23802;SDS011;12082;51.786;6.018;2022-07-09T08:27:34;7.47;;;4.07;;
23802;SDS011;12082;51.786;6.018;2022-07-09T08:30:00;5.37;;;3.50;;
23802;SDS011;12082;51.786;6.018;2022-07-09T08:32:26;7.77;;;3.93;;
23802;SDS011;12082;51.786;6.018;2022-07-09T08:34:52;6.93;;;4.93;;
23802;SDS011;12082;51.786;6.018;2022-07-09T08:37:18;7.10;;;4.63;;
23802;SDS011;12082;51.786;6.018;2022-07-09T08:39:44;18.03;;;5.97;;
23802;SDS011;12082;51.786;6.018;2022-07-09T08:42:10;7.87;;;4.60;;
23802;SDS011;12082;51.786;6.018;2022-07-09T08:44:37;9.17;;;5.33;;
23802;SDS011;12082;51.786;6.018;2022-07-09T08:47:03;10.70;;;7.20;;
23802;SDS011;12082;51.786;6.018;2022-07-09T08:49:31;10.37;;;6.83;;
23802;SDS011;12082;51.786;6.018;2022-07-09T08:51:57;8.67;;;7.00;;
23802;SDS011;12082;51.786;6.018;2022-07-09T08:54:23;13.90;;;7.87;;
23802;SDS011;12082;51.786;6.018;2022-07-09T08:56:50;9.80;;;7.40;;
23802;SDS011;12082;51.786;6.018;2022-07-09T08:59:17;12.87;;;8.23;;
23802;SDS011;12082;51.786;6.018;2022-07-09T09:01:43;10.17;;;7.70;;
23802;SDS011;12082;51.786;6.018;2022-07-09T09:04:09;9.77;;;6.70;;
23802;SDS011;12082;51.786;6.018;2022-07-09T09:06:38;13.33;;;7.70;;
23802;SDS011;12082;51.786;6.018;2022-07-09T09:09:06;11.30;;;7.87;;
23802;SDS011;12082;51.786;6.018;2022-07-09T09:11:32;11.33;;;8.03;;
23802;SDS011;12082;51.786;6.018;2022-07-09T09:14:00;10.47;;;7.00;;
23802;SDS011;12082;51.786;6.018;2022-07-09T09:16:26;9.83;;;6.30;;
23802;SDS011;12082;51.786;6.018;2022-07-09T09:18:52;6.57;;;5.60;;
23802;SDS011;12082;51.786;6.018;2022-07-09T09:21:21;9.23;;;5.60;;
23802;SDS011;12082;51.786;6.018;2022-07-09T09:23:51;10.50;;;5.80;;
23802;SDS011;12082;51.786;6.018;2022-07-09T09:26:18;8.57;;;6.10;;
23802;SDS011;12082;51.786;6.018;2022-07-09T09:33:49;8.63;;;6.20;;
23802;SDS011;12082;51.786;6.018;2022-07-09T09:36:26;6.63;;;5.00;;
23802;SDS011;12082;51.786;6.018;2022-07-09T09:38:52;9.47;;;5.93;;
23802;SDS011;12082;51.786;6.018;2022-07-09T09:41:24;8.13;;;5.57;;
23802;SDS011;12082;51.786;6.018;2022-07-09T09:43:51;9.57;;;6.00;;
23802;SDS011;12082;51.786;6.018;2022-07-09T09:46:20;9.13;;;5.17;;
23802;SDS011;12082;51.786;6.018;2022-07-09T09:48:46;10.33;;;5.60;;
23802;SDS011;12082;51.786;6.018;2022-07-09T09:51:12;10.10;;;5.87;;
23802;SDS011;12082;51.786;6.018;2022-07-09T09:53:40;11.83;;;8.33;;
23802;SDS011;12082;51.786;6.018;2022-07-09T09:56:06;10.37;;;7.23;;
23802;SDS011;12082;51.786;6.018;2022-07-09T09:58:33;14.67;;;10.07;;
23802;SDS011;12082;51.786;6.018;2022-07-09T10:00:59;18.00;;;9.13;;
23802;SDS011;12082;51.786;6.018;2022-07-09T10:03:25;12.70;;;9.33;;
23802;SDS011;12082;51.786;6.018;2022-07-09T10:05:51;23.37;;;10.37;;
23802;SDS011;12082;51.786;6.018;2022-07-09T10:08:17;11.47;;;9.33;;
23802;SDS011;12082;51.786;6.018;2022-07-09T10:10:50;13.20;;;10.37;;
23802;SDS011;12082;51.786;6.018;2022-07-09T10:13:22;12.30;;;8.57;;
23802;SDS011;12082;51.786;6.018;2022-07-09T10:15:49;11.50;;;8.10;;
23802;SDS011;12082;51.786;6.018;2022-07-09T10:18:18;13.67;;;9.87;;
23802;SDS011;12082;51.786;6.018;2022-07-09T10:20:44;14.97;;;10.10;;
23802;SDS011;12082;51.786;6.018;2022-07-09T10:23:23;12.60;;;9.37;;
23802;SDS011;12082;51.786;6.018;2022-07-09T10:25:49;17.10;;;10.27;;
23802;SDS011;12082;51.786;6.018;2022-07-09T10:28:18;11.83;;;9.43;;
23802;SDS011;12082;51.786;6.018;2022-07-09T10:30:44;12.83;;;8.50;;
23802;SDS011;12082;51.786;6.018;2022-07-09T10:33:11;10.30;;;8.57;;
23802;SDS011;12082;51.786;6.018;2022-07-09T10:38:06;12.07;;;6.77;;
23802;SDS011;12082;51.786;6.018;2022-07-09T10:40:39;8.57;;;6.40;;
23802;SDS011;12082;51.786;6.018;2022-07-09T10:43:05;6.77;;;5.80;;
23802;SDS011;12082;51.786;6.018;2022-07-09T10:48:00;12.07;;;7.10;;
23802;SDS011;12082;51.786;6.018;2022-07-09T10:50:27;7.43;;;6.63;;
23802;SDS011;12082;51.786;6.018;2022-07-09T10:52:53;10.23;;;6.20;;
23802;SDS011;12082;51.786;6.018;2022-07-09T10:55:20;13.80;;;7.83;;
23802;SDS011;12082;51.786;6.018;2022-07-09T10:57:46;13.37;;;6.77;;
23802;SDS011;12082;51.786;6.018;2022-07-09T11:00:19;9.20;;;6.43;;
23802;SDS011;12082;51.786;6.018;2022-07-09T11:05:28;11.87;;;6.90;;
23802;SDS011;12082;51.786;6.018;2022-07-09T11:08:12;9.03;;;5.77;;
23802;SDS011;12082;51.786;6.018;2022-07-09T11:10:38;12.37;;;6.03;;
23802;SDS011;12082;51.786;6.018;2022-07-09T11:13:05;7.10;;;6.03;;
23802;SDS011;12082;51.786;6.018;2022-07-09T11:15:32;8.80;;;5.17;;
23802;SDS011;12082;51.786;6.018;2022-07-09T11:17:59;9.37;;;6.27;;
23802;SDS011;12082;51.786;6.018;2022-07-09T11:20:31;8.13;;;6.30;;
23802;SDS011;12082;51.786;6.018;2022-07-09T11:23:01;8.27;;;5.77;;
23802;SDS011;12082;51.786;6.018;2022-07-09T11:25:27;9.33;;;5.70;;
23802;SDS011;12082;51.786;6.018;2022-07-09T11:27:56;6.87;;;4.90;;
23802;SDS011;12082;51.786;6.018;2022-07-09T11:30:23;7.77;;;4.50;;
23802;SDS011;12082;51.786;6.018;2022-07-09T11:32:49;7.83;;;3.93;;
23802;SDS011;12082;51.786;6.018;2022-07-09T11:37:50;6.00;;;2.93;;
23802;SDS011;12082;51.786;6.018;2022-07-09T11:40:16;3.97;;;2.97;;
23802;SDS011;12082;51.786;6.018;2022-07-09T11:42:45;7.33;;;2.70;;
23802;SDS011;12082;51.786;6.018;2022-07-09T11:45:11;4.93;;;2.70;;
23802;SDS011;12082;51.786;6.018;2022-07-09T11:47:37;4.47;;;2.90;;
23802;SDS011;12082;51.786;6.018;2022-07-09T11:52:33;3.20;;;2.40;;
23802;SDS011;12082;51.786;6.018;2022-07-09T11:55:07;2.43;;;2.20;;
23802;SDS011;12082;51.786;6.018;2022-07-09T11:57:33;3.27;;;1.80;;
23802;SDS011;12082;51.786;6.018;2022-07-09T12:00:03;4.40;;;1.93;;
23802;SDS011;12082;51.786;6.018;2022-07-09T12:05:00;1.90;;;1.60;;
23802;SDS011;12082;51.786;6.018;2022-07-09T12:07:30;4.63;;;1.63;;
23802;SDS011;12082;51.786;6.018;2022-07-09T12:10:04;3.43;;;1.77;;
23802;SDS011;12082;51.786;6.018;2022-07-09T12:12:34;2.70;;;1.43;;
23802;SDS011;12082;51.786;6.018;2022-07-09T12:15:00;2.67;;;1.70;;
23802;SDS011;12082;51.786;6.018;2022-07-09T12:17:28;1.80;;;1.60;;
23802;SDS011;12082;51.786;6.018;2022-07-09T12:19:55;4.43;;;1.67;;
23802;SDS011;12082;51.786;6.018;2022-07-09T12:22:22;2.33;;;1.33;;
23802;SDS011;12082;51.786;6.018;2022-07-09T12:24:48;1.53;;;1.40;;
23802;SDS011;12082;51.786;6.018;2022-07-09T12:27:14;3.90;;;1.40;;
23802;SDS011;12082;51.786;6.018;2022-07-09T12:29:39;2.70;;;1.57;;
23802;SDS011;12082;51.786;6.018;2022-07-09T12:32:06;3.13;;;1.70;;
23802;SDS011;12082;51.786;6.018;2022-07-09T12:34:31;5.43;;;2.07;;
23802;SDS011;12082;51.786;6.018;2022-07-09T12:36:57;6.87;;;1.47;;
23802;SDS011;12082;51.786;6.018;2022-07-09T12:39:23;5.13;;;1.60;;
23802;SDS011;12082;51.786;6.018;2022-07-09T12:41:48;1.60;;;1.37;;
23802;SDS011;12082;51.786;6.018;2022-07-09T12:44:14;4.43;;;1.43;;
23802;SDS011;12082;51.786;6.018;2022-07-09T12:46:39;1.27;;;1.17;;
23802;SDS011;12082;51.786;6.018;2022-07-09T12:49:06;2.40;;;1.23;;
23802;SDS011;12082;51.786;6.018;2022-07-09T12:51:32;2.00;;;1.30;;
23802;SDS011;12082;51.786;6.018;2022-07-09T12:53:57;2.23;;;1.43;;
23802;SDS011;12082;51.786;6.018;2022-07-09T12:56:23;2.27;;;1.20;;
23802;SDS011;12082;51.786;6.018;2022-07-09T12:58:49;2.13;;;1.57;;
23802;SDS011;12082;51.786;6.018;2022-07-09T13:01:14;3.40;;;1.40;;
23802;SDS011;12082;51.786;6.018;2022-07-09T13:03:40;3.40;;;1.40;;
23802;SDS011;12082;51.786;6.018;2022-07-09T13:06:06;2.13;;;1.00;;
23802;SDS011;12082;51.786;6.018;2022-07-09T13:08:52;2.40;;;1.23;;
23802;SDS011;12082;51.786;6.018;2022-07-09T13:11:17;4.93;;;1.40;;
23802;SDS011;12082;51.786;6.018;2022-07-09T13:13:43;1.83;;;1.30;;
23802;SDS011;12082;51.786;6.018;2022-07-09T13:16:09;1.50;;;1.40;;
23802;SDS011;12082;51.786;6.018;2022-07-09T13:18:34;2.37;;;1.60;;
23802;SDS011;12082;51.786;6.018;2022-07-09T13:21:00;2.80;;;1.20;;
23802;SDS011;12082;51.786;6.018;2022-07-09T13:23:25;4.00;;;1.10;;
23802;SDS011;12082;51.786;6.018;2022-07-09T13:25:51;2.43;;;1.10;;
23802;SDS011;12082;51.786;6.018;2022-07-09T13:28:17;3.60;;;1.23;;
23802;SDS011;12082;51.786;6.018;2022-07-09T13:30:42;2.47;;;1.17;;
23802;SDS011;12082;51.786;6.018;2022-07-09T13:33:08;1.50;;;1.30;;
23802;SDS011;12082;51.786;6.018;2022-07-09T13:35:33;5.67;;;1.40;;
23802;SDS011;12082;51.786;6.018;2022-07-09T13:37:59;2.33;;;1.33;;
23802;SDS011;12082;51.786;6.018;2022-07-09T13:40:24;2.87;;;1.17;;
23802;SDS011;12082;51.786;6.018;2022-07-09T13:42:50;2.30;;;1.20;;
23802;SDS011;12082;51.786;6.018;2022-07-09T13:45:16;5.07;;;1.87;;
23802;SDS011;12082;51.786;6.018;2022-07-09T13:47:41;1.40;;;1.30;;
23802;SDS011;12082;51.786;6.018;2022-07-09T13:50:07;2.67;;;1.20;;
23802;SDS011;12082;51.786;6.018;2022-07-09T13:52:33;7.40;;;1.87;;
23802;SDS011;12082;51.786;6.018;2022-07-09T13:54:58;2.13;;;1.47;;
23802;SDS011;12082;51.786;6.018;2022-07-09T13:57:24;2.37;;;1.43;;
23802;SDS011;12082;51.786;6.018;2022-07-09T13:59:49;7.40;;;1.43;;
23802;SDS011;12082;51.786;6.018;2022-07-09T14:02:15;6.97;;;1.70;;
23802;SDS011;12082;51.786;6.018;2022-07-09T14:04:41;3.70;;;1.27;;
23802;SDS011;12082;51.786;6.018;2022-07-09T14:07:06;6.93;;;1.07;;
23802;SDS011;12082;51.786;6.018;2022-07-09T14:09:32;11.40;;;1.30;;
23802;SDS011;12082;51.786;6.018;2022-07-09T14:11:57;10.03;;;1.27;;
23802;SDS011;12082;51.786;6.018;2022-07-09T14:14:23;2.70;;;1.10;;
23802;SDS011;12082;51.786;6.018;2022-07-09T14:16:48;2.23;;;1.20;;
23802;SDS011;12082;51.786;6.018;2022-07-09T14:19:14;5.57;;;1.13;;
23802;SDS011;12082;51.786;6.018;2022-07-09T14:21:40;3.43;;;0.90;;
23802;SDS011;12082;51.786;6.018;2022-07-09T14:24:05;4.03;;;0.90;;
23802;SDS011;12082;51.786;6.018;2022-07-09T14:26:31;2.33;;;1.07;;
23802;SDS011;12082;51.786;6.018;2022-07-09T14:28:56;4.97;;;0.80;;
23802;SDS011;12082;51.786;6.018;2022-07-09T14:31:22;3.13;;;0.97;;
23802;SDS011;12082;51.786;6.018;2022-07-09T14:33:49;4.23;;;1.10;;
23802;SDS011;12082;51.786;6.018;2022-07-09T14:36:15;2.80;;;1.13;;
23802;SDS011;12082;51.786;6.018;2022-07-09T14:38:40;2.77;;;0.87;;
23802;SDS011;12082;51.786;6.018;2022-07-09T14:41:06;5.27;;;1.37;;
23802;SDS011;12082;51.786;6.018;2022-07-09T14:43:32;1.87;;;1.13;;
23802;SDS011;12082;51.786;6.018;2022-07-09T14:45:57;1.83;;;1.00;;
23802;SDS011;12082;51.786;6.018;2022-07-09T14:48:23;4.90;;;1.43;;
23802;SDS011;12082;51.786;6.018;2022-07-09T14:50:49;3.90;;;1.10;;
23802;SDS011;12082;51.786;6.018;2022-07-09T14:53:14;2.00;;;1.00;;